Seal Beach, CA (90740)

7:50 AM PDT on August 27, 2016 (GMT -0700)
| | Change Station

Elev -9999 ft 0.00 °N, 0.00 °E | Updated

Clear
Clear
69 °F
Feels Like 69 °F
N
4
Wind Variable Wind from SW
Gusts mph

Today
High -- | Low -- °F
--% Chance of Precip.
Yesterday
High -- | Low -- °F
Precip. -- in
Pressure 29.98 in
Visibility 10.0 miles
Clouds Overcast 2100 ft
Dew Point 59 °F
Humidity 72%
Rainfall --
Snow Depth Not available.
6:23 AM 7:23 PM
Waning Crescent, 24% visible
METAR KSLI 271358Z AUTO 03003KT 10SM OVC021 19/14 A2997 RMK AO2 SLP152 T01890144
Pressure 29.98 in
Visibility 10.0 miles
Clouds Overcast 2100 ft
Dew Point 59 °F
Humidity 72%
Rainfall --
Snow Depth Not available.
6:23 AM 7:23 PM
Waning Crescent, 24% visible
METAR KSLI 271358Z AUTO 03003KT 10SM OVC021 19/14 A2997 RMK AO2 SLP152 T01890144

10-Day Weather Forecast

Almanac

Astronomy

Aug. 27, 2016 Rise Set
Actual Time
Civil Twilight
Nautical Twilight
Astronomical Twilight
Moon
Length of Visible Light
Length of Day
Tomorrow will be .
, % of the Moon is Illuminated

Today's Extremes

State Highs State Lows

Community

WunderPhotos

Upload Photos

1,935,344 photos uploaded!

WunderBlog® & News

Nearby

Air Quality

  Air Quality AQ Index Pollutant
Not available.

Snow Depth

Station Depth Elevation

Earthquake Activity

City Distance Mag. Time & Date
Minimum magnitude displayed is 2.5.

Coastal Water Temperatures

Place Temperature

Stations

Nearby Weather Stations

Station Location Temp. Windchill Dew Point Humidity Wind Precip. Elev Updated Type
                   

Watches & Warnings

There are currently no watches in effect.